createdAt,value
2018-11-27T00:00:06.034Z,15.10
2018-11-27T00:01:06.330Z,15.50
2018-11-27T00:02:06.446Z,14.70
2018-11-27T00:03:06.516Z,14.40
2018-11-27T00:04:07.195Z,15.50
2018-11-27T00:05:07.136Z,15.10
2018-11-27T00:06:07.473Z,14.20
2018-11-27T00:07:07.472Z,14.80
2018-11-27T00:08:07.588Z,14.80
2018-11-27T00:09:07.909Z,15.40
2018-11-27T00:10:08.045Z,15.30
2018-11-27T00:11:08.246Z,14.30
2018-11-27T00:12:08.445Z,14.90
2018-11-27T00:13:08.651Z,14.40
2018-11-27T00:14:08.985Z,15.20
2018-11-27T00:15:09.143Z,15.40
2018-11-27T00:16:08.956Z,15.40
2018-11-27T00:17:09.353Z,16.00
2018-11-27T00:18:09.758Z,14.90
2018-11-27T00:19:10.194Z,15.30
2018-11-27T00:20:10.629Z,14.60
2018-11-27T00:21:10.964Z,15.80
2018-11-27T00:22:11.372Z,14.10
2018-11-27T00:23:11.737Z,16.00
2018-11-27T00:24:12.080Z,15.40
2018-11-27T00:25:12.494Z,14.80
2018-11-27T00:26:12.673Z,15.80
2018-11-27T00:27:13.010Z,14.50
2018-11-27T00:29:13.495Z,15.20
2018-11-27T00:30:13.840Z,15.10
2018-11-27T00:31:14.060Z,15.00
2018-11-27T00:32:14.393Z,15.70
2018-11-27T00:33:14.691Z,15.50
2018-11-27T00:34:15.074Z,15.80
2018-11-27T00:35:15.888Z,15.10
2018-11-27T00:36:15.890Z,15.10
2018-11-27T00:37:15.706Z,15.90
2018-11-27T00:38:16.139Z,15.50
2018-11-27T00:39:16.659Z,15.20
2018-11-27T00:40:17.039Z,15.00
2018-11-27T00:41:16.545Z,16.20
2018-11-27T00:42:16.972Z,15.10
2018-11-27T00:43:17.389Z,16.30
2018-11-27T00:44:17.793Z,15.20
2018-11-27T00:45:18.919Z,15.10
2018-11-27T00:46:19.332Z,15.60
2018-11-27T00:48:19.852Z,14.70
2018-11-27T00:49:20.269Z,15.80
2018-11-27T00:50:20.592Z,15.00
2018-11-27T00:51:20.701Z,16.40
2018-11-27T00:52:21.199Z,15.70
2018-11-27T00:53:21.424Z,14.70
2018-11-27T00:54:21.635Z,15.10
2018-11-27T00:55:21.652Z,16.10
2018-11-27T00:56:21.647Z,16.10
2018-11-27T00:57:22.126Z,15.60
2018-11-27T00:58:22.429Z,14.00
2018-11-27T00:59:22.572Z,15.10
2018-11-27T01:00:22.633Z,15.10
2018-11-27T01:01:23.123Z,15.80
2018-11-27T01:02:23.323Z,14.10
2018-11-27T01:03:23.522Z,16.60
2018-11-27T01:04:23.700Z,13.90
2018-11-27T01:05:24.073Z,15.20
2018-11-27T01:06:24.230Z,15.50
2018-11-27T01:07:24.143Z,15.00
2018-11-27T01:08:24.880Z,16.60
2018-11-27T01:09:24.727Z,14.80
2018-11-27T01:10:25.319Z,14.80
2018-11-27T01:11:25.340Z,15.40
2018-11-27T01:12:25.668Z,14.70
2018-11-27T01:13:25.978Z,15.50
2018-11-27T01:14:26.289Z,15.80
2018-11-27T01:15:26.612Z,15.60
2018-11-27T01:16:26.916Z,16.40
2018-11-27T01:17:27.233Z,15.30
2018-11-27T01:18:27.651Z,15.60
2018-11-27T01:19:27.701Z,15.40
2018-11-27T01:20:27.985Z,15.20
2018-11-27T01:21:28.335Z,14.60
2018-11-27T01:22:28.746Z,15.20
2018-11-27T01:23:29.180Z,14.90
2018-11-27T01:24:29.531Z,14.90
2018-11-27T01:25:29.967Z,15.10
2018-11-27T01:26:30.384Z,15.20
2018-11-27T01:27:30.800Z,15.00
2018-11-27T01:28:31.396Z,0.00
2018-11-27T01:29:31.345Z,15.60
2018-11-27T01:30:31.708Z,15.90
2018-11-27T01:31:32.035Z,14.70
2018-11-27T01:32:32.465Z,14.60
2018-11-27T01:33:32.758Z,14.90
2018-11-27T01:34:33.770Z,14.30
2018-11-27T01:35:33.476Z,15.40
2018-11-27T01:36:34.090Z,15.30
2018-11-27T01:37:34.305Z,15.60
2018-11-27T01:38:34.625Z,14.90
2018-11-27T01:39:34.827Z,14.30
2018-11-27T01:40:35.049Z,15.20
2018-11-27T01:41:35.556Z,15.80
2018-11-27T01:42:35.154Z,15.20
2018-11-27T01:43:35.778Z,15.30
2018-11-27T01:44:35.575Z,16.30
2018-11-27T01:45:36.006Z,15.40
2018-11-27T01:46:36.511Z,15.00
2018-11-27T01:47:36.829Z,15.70
2018-11-27T01:48:36.839Z,15.50
2018-11-27T01:49:36.928Z,14.30
2018-11-27T01:50:37.137Z,15.60
2018-11-27T01:51:37.157Z,13.70
2018-11-27T01:52:37.154Z,14.20
2018-11-27T01:53:37.162Z,14.90
2018-11-27T01:54:37.269Z,15.40
2018-11-27T01:55:37.390Z,14.70
2018-11-27T01:56:37.154Z,15.00
2018-11-27T01:57:37.388Z,16.20
2018-11-27T01:58:37.595Z,15.80
2018-11-27T01:59:37.687Z,15.00
2018-11-27T02:00:37.810Z,14.20
2018-11-27T02:01:38.057Z,14.50
2018-11-27T02:02:38.257Z,14.30
2018-11-27T02:03:38.545Z,14.20
2018-11-27T02:04:38.778Z,14.60
2018-11-27T02:05:38.877Z,15.80
2018-11-27T02:06:39.045Z,15.40
2018-11-27T02:07:39.039Z,16.00
2018-11-27T02:08:39.365Z,15.30
2018-11-27T02:09:39.789Z,14.20
2018-11-27T02:10:40.181Z,15.00
2018-11-27T02:11:40.488Z,15.20
2018-11-27T02:12:40.820Z,15.50
2018-11-27T02:13:41.294Z,14.20
2018-11-27T02:14:41.646Z,14.50
2018-11-27T02:15:42.234Z,14.80
2018-11-27T02:16:42.076Z,15.90
2018-11-27T02:17:42.485Z,15.10
2018-11-27T02:18:42.904Z,14.70
2018-11-27T02:19:43.212Z,14.70
2018-11-27T02:20:43.533Z,15.90
2018-11-27T02:21:43.952Z,15.70
2018-11-27T02:22:44.517Z,15.30
2018-11-27T02:23:44.351Z,16.00
2018-11-27T02:24:44.779Z,15.30
2018-11-27T02:25:45.100Z,15.10
2018-11-27T02:26:45.517Z,17.30
2018-11-27T02:27:46.174Z,14.50
2018-11-27T02:28:46.048Z,15.40
2018-11-27T02:29:46.450Z,16.10
2018-11-27T02:30:46.609Z,14.90
2018-11-27T02:31:46.434Z,15.20
2018-11-27T02:32:46.776Z,15.60
2018-11-27T02:33:47.205Z,15.90
2018-11-27T02:35:47.617Z,15.30
2018-11-27T02:36:48.134Z,14.60
2018-11-27T02:37:48.164Z,15.50
2018-11-27T02:38:48.314Z,16.00
2018-11-27T02:39:48.428Z,16.70
2018-11-27T02:40:49.156Z,15.10
2018-11-27T02:41:49.163Z,15.20
2018-11-27T02:42:49.690Z,15.40
2018-11-27T02:43:50.013Z,16.30
2018-11-27T02:44:50.309Z,16.30
2018-11-27T02:45:50.822Z,16.30
2018-11-27T02:46:50.833Z,15.80
2018-11-27T02:47:51.019Z,16.10
2018-11-27T02:48:51.350Z,16.70
2018-11-27T02:49:51.414Z,14.50
2018-11-27T02:50:51.670Z,14.90
2018-11-27T02:51:51.783Z,16.60
2018-11-27T02:53:51.904Z,15.20
2018-11-27T02:54:51.907Z,15.70
2018-11-27T02:55:52.017Z,16.30
2018-11-27T02:56:51.924Z,15.80
2018-11-27T02:57:52.334Z,15.70
2018-11-27T02:58:52.508Z,15.30
2018-11-27T02:59:52.628Z,15.60
2018-11-27T03:00:52.765Z,16.70
2018-11-27T03:01:52.930Z,16.40
2018-11-27T03:02:53.305Z,16.20
2018-11-27T03:03:53.197Z,15.50
2018-11-27T03:04:53.605Z,15.90
2018-11-27T03:05:53.506Z,17.00
2018-11-27T03:06:54.059Z,16.80
2018-11-27T03:07:54.098Z,16.50
2018-11-27T03:08:54.095Z,15.20
2018-11-27T03:09:54.713Z,17.10
2018-11-27T03:10:54.598Z,16.40
2018-11-27T03:11:55.023Z,15.50
2018-11-27T03:12:55.513Z,16.60
2018-11-27T03:13:55.956Z,16.20
2018-11-27T03:14:56.363Z,16.70
2018-11-27T03:15:56.783Z,16.40
2018-11-27T03:16:57.128Z,16.30
2018-11-27T03:17:57.522Z,15.90
2018-11-27T03:18:57.931Z,16.40
2018-11-27T03:19:58.342Z,15.50
2018-11-27T03:20:58.760Z,15.50
2018-11-27T03:21:59.209Z,17.40
2018-11-27T03:22:59.597Z,16.60
2018-11-27T03:24:00.007Z,15.60
2018-11-27T03:25:00.426Z,15.90
2018-11-27T03:26:00.511Z,15.90
2018-11-27T03:27:00.827Z,17.10
2018-11-27T03:28:01.354Z,17.00
2018-11-27T03:29:01.375Z,18.40
2018-11-27T03:30:02.382Z,16.60
2018-11-27T03:31:02.178Z,16.40
2018-11-27T03:32:02.680Z,15.90
2018-11-27T03:33:02.163Z,17.10
2018-11-27T03:34:02.595Z,17.40
2018-11-27T03:35:02.369Z,17.00
2018-11-27T03:36:03.132Z,16.10
2018-11-27T03:37:03.650Z,16.10
2018-11-27T03:38:04.189Z,16.80
2018-11-27T03:39:04.491Z,15.40
2018-11-27T03:40:05.007Z,16.20
2018-11-27T03:41:05.015Z,17.40
2018-11-27T03:42:05.330Z,16.60
2018-11-27T03:43:05.641Z,15.90
2018-11-27T03:44:06.068Z,16.40
2018-11-27T03:45:06.470Z,17.70
2018-11-27T03:46:06.508Z,16.90
2018-11-27T03:47:06.788Z,17.50
2018-11-27T03:48:06.886Z,16.60
2018-11-27T03:49:06.913Z,16.20
2018-11-27T03:50:06.885Z,16.80
2018-11-27T03:51:07.465Z,17.10
2018-11-27T03:52:07.322Z,16.10
2018-11-27T03:53:07.646Z,16.70
2018-11-27T03:54:07.793Z,16.00
2018-11-27T03:55:08.157Z,18.30
2018-11-27T03:56:08.096Z,17.10
2018-11-27T03:57:07.966Z,17.60
2018-11-27T03:58:08.913Z,15.00
2018-11-27T03:59:08.711Z,16.90
2018-11-27T04:00:09.212Z,17.00
2018-11-27T04:01:09.323Z,17.50
2018-11-27T04:02:09.676Z,18.10
2018-11-27T04:03:10.094Z,16.90
2018-11-27T04:04:10.421Z,16.80
2018-11-27T04:05:10.829Z,17.20
2018-11-27T04:06:11.241Z,17.00
2018-11-27T04:07:11.717Z,16.50
2018-11-27T04:08:12.122Z,16.70
2018-11-27T04:09:12.516Z,17.00
2018-11-27T04:10:12.913Z,17.60
2018-11-27T04:11:13.338Z,16.30
2018-11-27T04:12:13.738Z,16.90
2018-11-27T04:13:14.048Z,17.80
2018-11-27T04:14:14.370Z,17.30
2018-11-27T04:15:14.661Z,16.60
2018-11-27T04:16:15.023Z,19.30
2018-11-27T04:17:15.690Z,16.90
2018-11-27T04:18:15.728Z,17.00
2018-11-27T04:19:16.142Z,18.30
2018-11-27T04:20:17.025Z,16.60
2018-11-27T04:21:16.880Z,17.50
2018-11-27T04:22:17.180Z,16.90
2018-11-27T04:23:17.511Z,17.60
2018-11-27T04:24:18.202Z,17.70
2018-11-27T04:25:18.311Z,17.70
2018-11-27T04:26:19.025Z,16.60
2018-11-27T04:27:19.238Z,17.80
2018-11-27T04:28:19.254Z,18.90
2018-11-27T04:29:19.249Z,16.60
2018-11-27T04:30:19.370Z,17.50
2018-11-27T04:31:19.786Z,17.80
2018-11-27T04:32:20.090Z,17.60
2018-11-27T04:33:20.307Z,17.10
2018-11-27T04:34:20.719Z,17.20
2018-11-27T04:35:20.929Z,18.00
2018-11-27T04:36:20.978Z,17.70
2018-11-27T04:37:21.254Z,16.20
2018-11-27T04:38:21.306Z,18.10
2018-11-27T04:39:21.364Z,17.30
2018-11-27T04:40:21.591Z,16.80
2018-11-27T04:41:21.484Z,17.60
2018-11-27T04:42:22.289Z,16.60
2018-11-27T04:43:22.165Z,17.70
2018-11-27T04:44:22.467Z,18.50
2018-11-27T04:45:22.630Z,17.60
2018-11-27T04:46:22.827Z,16.80
2018-11-27T04:47:23.014Z,17.60
2018-11-27T04:48:23.124Z,16.00
2018-11-27T04:49:23.269Z,16.90
2018-11-27T04:50:23.482Z,17.50
2018-11-27T04:51:24.029Z,18.30
2018-11-27T04:52:23.936Z,17.40
2018-11-27T04:53:24.071Z,17.40
2018-11-27T04:54:24.100Z,18.00
2018-11-27T04:55:24.127Z,18.60
2018-11-27T04:56:24.157Z,17.30
2018-11-27T04:57:24.233Z,18.80
2018-11-27T04:58:24.309Z,18.50
2018-11-27T05:00:24.447Z,16.80
2018-11-27T05:01:24.599Z,18.10
2018-11-27T05:02:24.917Z,17.90
2018-11-27T05:03:25.261Z,17.40
2018-11-27T05:04:26.778Z,17.40
2018-11-27T05:05:26.169Z,18.30
2018-11-27T05:06:26.753Z,17.00
2018-11-27T05:07:26.533Z,18.50
2018-11-27T05:08:26.932Z,18.70
2018-11-27T05:09:27.335Z,18.10
2018-11-27T05:10:27.742Z,18.00
2018-11-27T05:11:28.166Z,18.00
2018-11-27T05:12:28.574Z,18.40
2018-11-27T05:13:29.024Z,17.80
2018-11-27T05:14:29.416Z,17.80
2018-11-27T05:15:29.900Z,17.30
2018-11-27T05:16:30.235Z,18.10
2018-11-27T05:17:30.653Z,17.90
2018-11-27T05:18:31.065Z,17.10
2018-11-27T05:19:31.393Z,16.60
2018-11-27T05:20:31.995Z,18.10
2018-11-27T05:21:32.080Z,18.80
2018-11-27T05:22:31.939Z,18.40
2018-11-27T05:23:32.338Z,18.10
2018-11-27T05:24:32.622Z,17.00
2018-11-27T05:25:33.949Z,17.00
2018-11-27T05:26:34.173Z,17.20
2018-11-27T05:27:34.375Z,17.80
2018-11-27T05:28:34.891Z,17.60
2018-11-27T05:29:35.102Z,17.70
2018-11-27T05:30:35.420Z,18.10
2018-11-27T05:31:35.738Z,18.00
2018-11-27T05:32:36.055Z,18.20
2018-11-27T05:33:36.111Z,18.70
2018-11-27T05:34:36.773Z,18.50
2018-11-27T05:35:36.575Z,17.70
2018-11-27T05:36:36.896Z,17.70
2018-11-27T05:37:36.989Z,19.20
2018-11-27T05:38:37.102Z,18.50
2018-11-27T05:39:37.473Z,17.90
2018-11-27T05:40:37.570Z,19.10
2018-11-27T05:41:37.682Z,18.80
2018-11-27T05:42:37.874Z,17.80
2018-11-27T05:43:38.066Z,17.70
2018-11-27T05:44:38.457Z,18.70
2018-11-27T05:45:38.740Z,17.70
2018-11-27T05:46:39.112Z,17.70
2018-11-27T05:47:39.186Z,17.90
2018-11-27T05:48:39.371Z,17.50
2018-11-27T05:49:39.898Z,17.50
2018-11-27T05:50:39.311Z,17.30
2018-11-27T05:51:39.615Z,17.70
2018-11-27T05:52:39.930Z,17.70
2018-11-27T05:53:40.412Z,18.10
2018-11-27T05:54:40.931Z,17.60
2018-11-27T05:55:40.836Z,19.70
2018-11-27T05:56:41.220Z,18.20
2018-11-27T05:57:41.595Z,17.40
2018-11-27T05:58:41.775Z,17.30
2018-11-27T05:59:42.302Z,17.10
2018-11-27T06:00:42.188Z,17.90
2018-11-27T06:01:43.025Z,17.80
2018-11-27T06:02:43.058Z,17.40
2018-11-27T06:03:43.286Z,16.80
2018-11-27T06:04:43.662Z,17.20
2018-11-27T06:05:44.124Z,17.60
2018-11-27T06:06:44.533Z,16.40
2018-11-27T06:07:45.014Z,17.70
2018-11-27T06:08:45.445Z,18.20
2018-11-27T06:09:45.769Z,18.20
2018-11-27T06:10:46.239Z,18.10
2018-11-27T06:11:46.567Z,17.10
2018-11-27T06:12:46.993Z,16.60
2018-11-27T06:14:47.424Z,17.00
2018-11-27T06:15:47.754Z,16.70
2018-11-27T06:16:48.624Z,18.00
2018-11-27T06:17:49.254Z,18.00
2018-11-27T06:18:49.354Z,18.70
2018-11-27T06:19:49.873Z,18.60
2018-11-27T06:20:50.289Z,17.40
2018-11-27T06:21:50.604Z,16.70
2018-11-27T06:22:50.984Z,17.60
2018-11-27T06:23:51.230Z,17.60
2018-11-27T06:24:51.647Z,17.40
2018-11-27T06:25:51.758Z,18.20
2018-11-27T06:26:51.859Z,17.40
2018-11-27T06:27:51.934Z,16.60
2018-11-27T06:28:52.208Z,17.50
2018-11-27T06:29:52.275Z,17.50
2018-11-27T06:30:52.602Z,18.10
2018-11-27T06:31:52.767Z,17.00
2018-11-27T06:32:52.937Z,16.60
2018-11-27T06:33:53.138Z,17.40
2018-11-27T06:34:53.337Z,17.60
2018-11-27T06:36:53.646Z,17.80
2018-11-27T06:37:53.811Z,17.60
2018-11-27T06:38:54.099Z,17.70
2018-11-27T06:39:54.209Z,17.30
2018-11-27T06:40:54.305Z,16.60
2018-11-27T06:41:54.719Z,17.30
2018-11-27T06:42:54.538Z,17.20
2018-11-27T06:43:54.875Z,18.80
2018-11-27T06:44:55.286Z,18.90
2018-11-27T06:45:55.705Z,18.90
2018-11-27T06:46:56.379Z,18.40
2018-11-27T06:47:56.344Z,16.20
2018-11-27T06:48:56.743Z,19.30
2018-11-27T06:49:57.217Z,20.30
2018-11-27T06:50:57.624Z,19.00
2018-11-27T06:51:57.992Z,20.10
2018-11-27T06:52:58.719Z,19.60
2018-11-27T06:53:58.618Z,20.50
2018-11-27T06:54:58.962Z,20.20
2018-11-27T06:55:59.542Z,18.90
2018-11-27T06:56:59.460Z,19.50
2018-11-27T06:57:59.777Z,18.30
2018-11-27T06:59:00.097Z,18.00
2018-11-27T07:00:00.501Z,18.00
2018-11-27T07:01:00.512Z,18.20
2018-11-27T07:02:01.029Z,17.50
2018-11-27T07:03:00.943Z,16.90
2018-11-27T07:04:01.211Z,19.00
2018-11-27T07:05:01.731Z,18.30
2018-11-27T07:06:01.874Z,18.60
2018-11-27T07:07:02.252Z,20.30
2018-11-27T07:08:02.605Z,20.40
2018-11-27T07:09:02.995Z,19.00
2018-11-27T07:10:02.890Z,21.70
2018-11-27T07:12:03.414Z,29.30
2018-11-27T07:13:04.242Z,34.80
2018-11-27T07:14:04.872Z,29.10
2018-11-27T07:15:04.663Z,33.30
2018-11-27T07:16:04.861Z,46.30
2018-11-27T07:17:04.883Z,40.40
2018-11-27T07:18:05.315Z,28.50
2018-11-27T07:19:05.013Z,28.10
2018-11-27T07:20:05.612Z,32.10
2018-11-27T07:21:05.726Z,36.20
2018-11-27T07:22:05.926Z,36.40
2018-11-27T07:23:06.045Z,31.70
2018-11-27T07:24:06.171Z,26.50
2018-11-27T07:25:06.064Z,20.70
2018-11-27T07:26:06.778Z,18.90
2018-11-27T07:27:06.689Z,17.70
2018-11-27T07:28:07.172Z,17.10
2018-11-27T07:29:07.224Z,16.60
2018-11-27T07:30:07.456Z,15.60
2018-11-27T07:31:07.667Z,16.50
2018-11-27T07:32:09.601Z,18.30
2018-11-27T07:33:07.735Z,23.60
2018-11-27T07:34:08.393Z,23.60
2018-11-27T07:35:08.905Z,21.60
2018-11-27T07:36:08.645Z,21.30
2018-11-27T07:37:09.028Z,18.80
2018-11-27T07:38:09.176Z,17.80
2018-11-27T07:39:09.463Z,16.40
2018-11-27T07:40:09.775Z,15.60
2018-11-27T07:41:09.916Z,16.10
2018-11-27T07:42:10.273Z,16.80
2018-11-27T07:43:10.688Z,16.30
2018-11-27T07:44:10.734Z,16.60
2018-11-27T07:45:11.037Z,17.00
2018-11-27T07:46:11.463Z,16.60
2018-11-27T07:47:11.735Z,17.90
2018-11-27T07:48:12.239Z,17.80
2018-11-27T07:49:12.043Z,17.20
2018-11-27T07:50:12.318Z,17.60
2018-11-27T07:51:12.680Z,16.80
2018-11-27T07:52:12.951Z,17.40
2018-11-27T07:53:15.254Z,16.70
2018-11-27T07:54:15.074Z,17.90
2018-11-27T07:55:15.464Z,16.00
2018-11-27T07:56:15.497Z,16.90
2018-11-27T07:57:15.931Z,17.00
2018-11-27T07:58:13.906Z,17.90
2018-11-27T07:59:14.441Z,17.30
2018-11-27T08:00:14.280Z,16.10
2018-11-27T08:01:14.397Z,17.20
2018-11-27T08:02:14.700Z,16.40
2018-11-27T08:03:14.966Z,15.80
2018-11-27T08:04:15.231Z,16.60
2018-11-27T08:05:15.848Z,16.40
2018-11-27T08:06:15.873Z,17.30
2018-11-27T08:07:16.140Z,16.70
2018-11-27T08:08:16.615Z,15.60
2018-11-27T08:09:16.872Z,16.10
2018-11-27T08:10:17.487Z,16.90
2018-11-27T08:11:17.362Z,15.60
2018-11-27T08:12:17.627Z,16.90
2018-11-27T08:13:17.992Z,16.50
2018-11-27T08:14:18.537Z,17.10
2018-11-27T08:15:18.646Z,16.70
2018-11-27T08:16:18.858Z,16.30
2018-11-27T08:17:18.954Z,18.00
2018-11-27T08:18:19.067Z,15.80
2018-11-27T08:19:19.198Z,16.10
2018-11-27T08:20:19.363Z,16.60
2018-11-27T08:21:19.713Z,15.80
2018-11-27T08:22:19.828Z,16.10
2018-11-27T08:23:19.943Z,16.00
2018-11-27T08:24:20.062Z,15.70
2018-11-27T08:25:20.242Z,16.50
2018-11-27T08:26:20.363Z,15.40
2018-11-27T08:27:20.496Z,16.50
2018-11-27T08:28:20.637Z,16.10
2018-11-27T08:29:20.776Z,17.10
2018-11-27T08:30:20.902Z,15.90
2018-11-27T08:31:21.186Z,17.00
2018-11-27T08:32:21.301Z,16.60
2018-11-27T08:33:21.357Z,17.10
2018-11-27T08:34:21.479Z,14.70
2018-11-27T08:35:21.546Z,16.60
2018-11-27T08:36:21.980Z,16.90
2018-11-27T08:37:22.130Z,16.50
2018-11-27T08:38:22.244Z,18.10
2018-11-27T08:39:22.325Z,16.80
2018-11-27T08:40:22.402Z,17.40
2018-11-27T08:41:23.973Z,17.80
2018-11-27T08:42:22.925Z,15.70
2018-11-27T08:43:22.997Z,17.00
2018-11-27T08:44:23.078Z,16.70
2018-11-27T08:45:23.158Z,17.20
2018-11-27T08:46:23.272Z,16.70
2018-11-27T08:47:23.339Z,16.00
2018-11-27T08:48:23.420Z,16.10
2018-11-27T08:49:23.483Z,17.80
2018-11-27T08:50:23.615Z,17.20
2018-11-27T08:51:23.989Z,16.80
2018-11-27T08:52:23.946Z,15.90
2018-11-27T08:53:24.318Z,16.40
2018-11-27T08:54:24.595Z,16.10
2018-11-27T08:56:25.151Z,16.50
2018-11-27T08:57:25.080Z,16.30
2018-11-27T08:58:25.355Z,16.10
2018-11-27T08:59:25.636Z,16.10
2018-11-27T09:00:25.981Z,17.60
2018-11-27T09:01:26.266Z,16.90
2018-11-27T09:02:26.541Z,17.50
2018-11-27T09:03:26.909Z,16.30
2018-11-27T09:04:27.377Z,15.70
2018-11-27T09:05:27.657Z,17.00
2018-11-27T09:06:27.905Z,17.80
2018-11-27T09:07:28.173Z,18.70
2018-11-27T09:08:28.536Z,17.60
2018-11-27T09:09:28.835Z,17.50
2018-11-27T09:10:29.129Z,18.10
2018-11-27T09:11:29.451Z,18.10
2018-11-27T09:12:29.883Z,16.90
2018-11-27T09:13:30.005Z,16.70
2018-11-27T09:14:30.599Z,16.10
2018-11-27T09:15:30.645Z,17.60
2018-11-27T09:16:30.426Z,17.10
2018-11-27T09:17:30.721Z,16.90
2018-11-27T09:18:31.477Z,16.70
2018-11-27T09:19:31.251Z,16.50
2018-11-27T09:20:31.526Z,16.40
2018-11-27T09:21:31.794Z,15.40
2018-11-27T09:22:32.139Z,16.30
2018-11-27T09:23:32.432Z,17.10
2018-11-27T09:24:32.929Z,15.80
2018-11-27T09:25:33.472Z,17.00
2018-11-27T09:26:33.630Z,16.90
2018-11-27T09:27:33.727Z,18.20
2018-11-27T09:28:33.863Z,19.40
2018-11-27T09:29:33.987Z,15.60
2018-11-27T09:30:34.078Z,17.40
2018-11-27T09:31:34.222Z,16.40
2018-11-27T09:32:34.405Z,16.60
2018-11-27T09:33:34.535Z,16.50
2018-11-27T09:34:34.635Z,16.30
2018-11-27T09:35:35.283Z,16.60
2018-11-27T09:36:34.947Z,17.00
2018-11-27T09:37:35.071Z,18.10
2018-11-27T09:38:35.262Z,16.30
2018-11-27T09:39:35.400Z,16.70
2018-11-27T09:40:35.550Z,15.90
2018-11-27T09:41:35.655Z,16.40
2018-11-27T09:42:35.812Z,16.10
2018-11-27T09:43:35.980Z,16.90
2018-11-27T09:44:36.028Z,16.30
2018-11-27T09:45:36.107Z,16.20
2018-11-27T09:46:36.443Z,16.50
2018-11-27T09:47:36.540Z,17.20
2018-11-27T09:48:36.812Z,16.40
2018-11-27T09:49:37.207Z,16.80
2018-11-27T09:51:37.086Z,17.40
2018-11-27T09:52:37.222Z,17.80
2018-11-27T09:53:37.366Z,17.80
2018-11-27T09:54:37.450Z,17.00
2018-11-27T09:55:37.517Z,16.10
2018-11-27T09:57:37.614Z,18.40
2018-11-27T09:58:37.684Z,17.10
2018-11-27T09:59:37.761Z,18.10
2018-11-27T10:00:37.835Z,18.20
2018-11-27T10:01:37.919Z,18.20
2018-11-27T10:02:38.005Z,16.60
2018-11-27T10:03:38.075Z,17.70
2018-11-27T10:04:38.171Z,18.00
2018-11-27T10:05:38.258Z,18.50
2018-11-27T10:06:38.354Z,19.20
2018-11-27T10:07:38.427Z,18.60
2018-11-27T10:08:38.504Z,17.40
2018-11-27T10:09:39.953Z,17.40
2018-11-27T10:10:38.704Z,17.00
2018-11-27T10:11:38.703Z,18.60
2018-11-27T10:12:38.816Z,18.70
2018-11-27T10:13:38.819Z,17.10
2018-11-27T10:14:39.337Z,17.60
2018-11-27T10:15:39.308Z,18.40
2018-11-27T10:16:39.579Z,18.20
2018-11-27T10:17:40.062Z,16.80
2018-11-27T10:18:40.107Z,18.20
2018-11-27T10:19:40.371Z,17.30
2018-11-27T10:20:40.639Z,18.10
2018-11-27T10:21:40.902Z,18.90
2018-11-27T10:22:41.216Z,18.30
2018-11-27T10:23:41.506Z,18.10
2018-11-27T10:24:41.797Z,17.00
2018-11-27T10:25:42.286Z,18.20
2018-11-27T10:26:42.798Z,18.90
2018-11-27T10:27:42.791Z,18.60
2018-11-27T10:28:42.720Z,17.90
2018-11-27T10:29:43.018Z,16.70
2018-11-27T10:31:43.380Z,17.90
2018-11-27T10:32:43.653Z,19.10
2018-11-27T10:33:44.212Z,17.80
2018-11-27T10:34:44.687Z,19.20
2018-11-27T10:35:44.954Z,18.40
2018-11-27T10:36:45.306Z,19.40
2018-11-27T10:37:45.607Z,18.10
2018-11-27T10:38:45.884Z,18.20
2018-11-27T10:39:46.162Z,17.90
2018-11-27T10:40:46.546Z,18.30
2018-11-27T10:41:46.802Z,17.20
2018-11-27T10:42:47.378Z,18.40
2018-11-27T10:43:47.713Z,19.60
2018-11-27T10:44:47.853Z,17.90
2018-11-27T10:45:48.316Z,19.90
2018-11-27T10:46:48.949Z,19.00
2018-11-27T10:47:49.090Z,16.10
2018-11-27T10:48:49.365Z,17.30
2018-11-27T10:49:49.523Z,17.60
2018-11-27T10:50:49.656Z,17.50
2018-11-27T10:51:49.799Z,18.70
2018-11-27T10:52:49.916Z,18.00
2018-11-27T10:53:50.142Z,18.30
2018-11-27T10:54:50.831Z,19.00
2018-11-27T10:55:50.472Z,18.70
2018-11-27T10:56:50.621Z,20.20
2018-11-27T10:57:50.775Z,20.20
2018-11-27T10:58:50.862Z,20.50
2018-11-27T10:59:51.007Z,19.40
2018-11-27T11:00:51.087Z,22.00
2018-11-27T11:01:51.311Z,22.20
2018-11-27T11:02:51.794Z,21.30
2018-11-27T11:03:52.086Z,21.60
2018-11-27T11:04:52.189Z,20.60
2018-11-27T11:05:51.970Z,19.80
2018-11-27T11:06:52.763Z,25.40
2018-11-27T11:07:52.844Z,26.30
2018-11-27T11:08:52.958Z,27.80
2018-11-27T11:09:53.041Z,20.90
2018-11-27T11:10:53.128Z,20.60
2018-11-27T11:11:53.245Z,21.80
2018-11-27T11:12:53.378Z,23.60
2018-11-27T11:13:53.491Z,27.10
2018-11-27T11:14:53.584Z,26.00
2018-11-27T11:15:53.654Z,25.20
2018-11-27T11:16:53.756Z,25.80
2018-11-27T11:17:53.834Z,23.90
2018-11-27T11:18:53.866Z,22.90
2018-11-27T11:19:53.906Z,21.20
2018-11-27T11:20:53.970Z,20.70
2018-11-27T11:21:54.026Z,18.20
2018-11-27T11:22:53.977Z,18.60
2018-11-27T11:23:54.644Z,18.10
2018-11-27T11:24:54.428Z,19.70
2018-11-27T11:25:54.705Z,20.30
2018-11-27T11:26:54.968Z,18.20
2018-11-27T11:27:55.236Z,19.00
2018-11-27T11:28:55.494Z,18.40
2018-11-27T11:29:55.773Z,18.10
2018-11-27T11:30:56.135Z,18.50
2018-11-27T11:31:56.432Z,19.70
2018-11-27T11:32:56.706Z,21.50
2018-11-27T11:33:57.010Z,21.40
2018-11-27T11:34:57.275Z,20.90
2018-11-27T11:35:57.544Z,19.80
2018-11-27T11:36:57.813Z,18.20
2018-11-27T11:37:58.088Z,19.50
2018-11-27T11:38:58.441Z,19.40
2018-11-27T11:39:58.724Z,18.80
2018-11-27T11:40:59.026Z,18.00
2018-11-27T11:41:59.329Z,18.00
2018-11-27T11:42:59.605Z,18.40
2018-11-27T11:43:59.971Z,18.70
2018-11-27T11:45:00.222Z,21.40
2018-11-27T11:46:00.492Z,19.90
2018-11-27T11:47:00.784Z,19.70
2018-11-27T11:48:01.099Z,19.80
2018-11-27T11:49:02.001Z,20.60
2018-11-27T11:50:02.055Z,20.60
2018-11-27T11:51:02.168Z,18.80
2018-11-27T11:52:02.354Z,18.60
2018-11-27T11:53:02.435Z,19.30
2018-11-27T11:54:02.958Z,20.10
2018-11-27T11:55:02.696Z,19.60
2018-11-27T11:56:03.472Z,20.30
2018-11-27T11:57:03.965Z,18.60
2018-11-27T11:58:04.074Z,17.50
2018-11-27T11:59:04.191Z,18.30
2018-11-27T12:00:04.338Z,18.90
2018-11-27T12:01:04.656Z,19.30
2018-11-27T12:02:04.804Z,19.50
2018-11-27T12:03:04.958Z,19.40
2018-11-27T12:04:05.114Z,19.40
2018-11-27T12:05:05.249Z,20.00
2018-11-27T12:06:05.569Z,18.20
2018-11-27T12:07:05.323Z,18.50
2018-11-27T12:08:05.981Z,18.90
2018-11-27T12:09:06.324Z,18.50
2018-11-27T12:10:06.542Z,17.70
2018-11-27T12:11:06.866Z,18.90
2018-11-27T12:12:06.994Z,20.10
2018-11-27T12:13:07.042Z,19.50
2018-11-27T12:14:07.360Z,19.10
2018-11-27T12:15:07.470Z,18.30
2018-11-27T12:16:07.881Z,20.10
2018-11-27T12:17:10.466Z,19.50
2018-11-27T12:18:08.074Z,18.60
2018-11-27T12:19:07.832Z,19.80
2018-11-27T12:20:08.107Z,18.60
2018-11-27T12:21:08.794Z,19.60
2018-11-27T12:22:08.785Z,18.70
2018-11-27T12:23:09.646Z,19.60
2018-11-27T12:24:08.927Z,20.40
2018-11-27T12:25:09.191Z,20.00
2018-11-27T12:26:09.685Z,19.10
2018-11-27T12:27:09.973Z,19.40
2018-11-27T12:28:14.788Z,21.40
2018-11-27T12:29:11.027Z,21.00
2018-11-27T12:30:10.971Z,21.20
2018-11-27T12:31:11.140Z,22.00
2018-11-27T12:32:11.426Z,20.40
2018-11-27T12:33:11.713Z,21.00
2018-11-27T12:34:12.112Z,20.20
2018-11-27T12:35:12.446Z,20.20
2018-11-27T12:36:12.802Z,19.50
2018-11-27T12:37:13.078Z,21.90
2018-11-27T12:38:13.367Z,18.80
2018-11-27T12:39:13.631Z,21.20
2018-11-27T12:40:14.219Z,22.60
2018-11-27T12:41:14.347Z,21.10
2018-11-27T12:42:14.626Z,22.10
2018-11-27T12:43:14.981Z,21.70
2018-11-27T12:44:15.439Z,20.00
2018-11-27T12:45:16.028Z,22.30
2018-11-27T12:46:15.994Z,19.40
2018-11-27T12:47:17.504Z,20.70
2018-11-27T12:48:16.544Z,19.70
2018-11-27T12:49:16.845Z,20.10
2018-11-27T12:50:17.478Z,19.00
2018-11-27T12:51:18.006Z,19.90
2018-11-27T12:52:18.098Z,19.10
2018-11-27T12:53:18.749Z,21.50
2018-11-27T12:54:19.321Z,20.60
2018-11-27T12:55:19.134Z,20.90
2018-11-27T12:56:19.131Z,19.20
2018-11-27T12:57:19.943Z,20.90
2018-11-27T12:58:21.431Z,20.60
2018-11-27T12:59:20.966Z,19.90
2018-11-27T13:00:20.117Z,21.00
2018-11-27T13:01:21.697Z,20.60
2018-11-27T13:02:20.943Z,20.70
2018-11-27T13:03:21.181Z,20.90
2018-11-27T13:04:21.258Z,19.90
2018-11-27T13:05:21.560Z,19.40
2018-11-27T13:06:21.775Z,20.20
2018-11-27T13:07:21.916Z,21.20